createdAt,value
2022-12-01T00:01:45.118Z,0.19
2022-12-01T00:04:45.037Z,0.12
2022-12-01T00:07:45.147Z,0
2022-12-01T00:10:45.080Z,0.04
2022-12-01T00:13:45.180Z,0.35
2022-12-01T00:16:45.139Z,0.22
2022-12-01T00:19:45.110Z,0.21
2022-12-01T00:22:45.091Z,0.27
2022-12-01T00:25:45.053Z,0.46
2022-12-01T00:28:45.180Z,0.27
2022-12-01T00:31:45.073Z,0.25
2022-12-01T00:34:45.223Z,0.03
2022-12-01T00:37:45.027Z,0.31
2022-12-01T00:40:45.179Z,0.34
2022-12-01T00:43:45.284Z,0.06
2022-12-01T00:46:45.078Z,0.14
2022-12-01T00:49:45.065Z,0.29
2022-12-01T00:52:45.072Z,0.15
2022-12-01T00:55:45.160Z,0.14
2022-12-01T00:58:45.047Z,0.17
2022-12-01T01:01:45.178Z,0.19
2022-12-01T01:04:45.111Z,0.36
2022-12-01T01:07:45.127Z,0.14
2022-12-01T01:10:45.099Z,0.45
2022-12-01T01:13:45.096Z,0.22
2022-12-01T01:16:45.111Z,0.61
2022-12-01T01:19:45.147Z,0.26
2022-12-01T01:22:45.241Z,0.09
2022-12-01T01:25:45.263Z,0.24
2022-12-01T01:28:45.172Z,0.19
2022-12-01T01:31:45.201Z,0.27
2022-12-01T01:34:45.126Z,0.22
2022-12-01T01:37:45.242Z,0
2022-12-01T01:40:45.088Z,0
2022-12-01T01:43:45.128Z,0
2022-12-01T01:46:45.157Z,0
2022-12-01T01:49:45.304Z,0.17
2022-12-01T01:52:45.101Z,0.28
2022-12-01T01:55:45.261Z,0.15
2022-12-01T01:58:45.118Z,0.13
2022-12-01T02:01:45.243Z,0.14
2022-12-01T02:04:45.185Z,0.11
2022-12-01T02:07:45.122Z,0.08
2022-12-01T02:10:45.140Z,0.06
2022-12-01T02:13:45.166Z,0
2022-12-01T02:16:45.222Z,0.06
2022-12-01T02:19:45.233Z,0.14
2022-12-01T02:22:48.239Z,0.08
2022-12-01T02:25:45.252Z,0.36
2022-12-01T02:28:45.211Z,0.32
2022-12-01T02:31:45.163Z,0.33
2022-12-01T02:34:45.132Z,0.45
2022-12-01T02:37:45.329Z,0.43
2022-12-01T02:40:45.134Z,0.45
2022-12-01T02:43:45.216Z,0.52
2022-12-01T02:46:45.143Z,0.56
2022-12-01T02:49:45.176Z,0.46
2022-12-01T02:52:45.258Z,0.64
2022-12-01T02:55:45.227Z,0.47
2022-12-01T02:58:45.303Z,0.64
2022-12-01T03:01:45.352Z,0.65
2022-12-01T03:04:45.227Z,0.67
2022-12-01T03:07:45.387Z,0.68
2022-12-01T03:10:45.279Z,0.44
2022-12-01T03:13:45.265Z,0.4
2022-12-01T03:16:45.203Z,0.16
2022-12-01T03:19:45.177Z,0.19
2022-12-01T03:22:45.201Z,0.22
2022-12-01T03:25:45.267Z,0.42
2022-12-01T03:28:45.250Z,0.27
2022-12-01T03:31:45.233Z,0.28
2022-12-01T03:34:45.277Z,0.29
2022-12-01T03:37:45.213Z,0.26
2022-12-01T03:40:45.255Z,0.53
2022-12-01T03:43:45.211Z,0.66
2022-12-01T03:46:45.288Z,0.49
2022-12-01T03:49:45.207Z,0.3
2022-12-01T03:52:45.290Z,0.22
2022-12-01T03:55:45.195Z,0.38
2022-12-01T03:58:45.232Z,0.35
2022-12-01T04:01:45.420Z,0.28
2022-12-01T04:04:45.240Z,0.19
2022-12-01T04:07:45.269Z,0
2022-12-01T04:10:45.207Z,0
2022-12-01T04:13:45.319Z,0
2022-12-01T04:16:45.219Z,0
2022-12-01T04:19:45.392Z,0
2022-12-01T04:22:45.245Z,0.03
2022-12-01T04:25:45.260Z,0.09
2022-12-01T04:28:45.318Z,0.2
2022-12-01T04:31:45.430Z,0
2022-12-01T04:34:45.268Z,0.02
2022-12-01T04:37:45.318Z,0.48
2022-12-01T04:40:45.372Z,0.24
2022-12-01T04:43:45.325Z,0.3
2022-12-01T04:46:45.405Z,0.18
2022-12-01T04:49:45.267Z,0.08
2022-12-01T04:52:45.353Z,0.26
2022-12-01T04:55:45.279Z,0.33
2022-12-01T04:58:45.393Z,0.29
2022-12-01T05:01:45.420Z,0.28
2022-12-01T05:04:45.428Z,0.23
2022-12-01T05:07:45.366Z,0.45
2022-12-01T05:10:45.299Z,0.14
2022-12-01T05:13:45.394Z,0.19
2022-12-01T05:16:45.373Z,0.35
2022-12-01T05:19:45.434Z,0.17
2022-12-01T05:23:04.660Z,0.28
2022-12-01T05:25:45.300Z,0.39
2022-12-01T05:28:45.275Z,0.23
2022-12-01T05:31:45.424Z,0.31
2022-12-01T05:34:45.309Z,0.13
2022-12-01T05:37:45.378Z,0.03
2022-12-01T05:40:47.701Z,0
2022-12-01T05:43:45.316Z,0
2022-12-01T05:46:45.323Z,0
2022-12-01T05:49:45.352Z,0
2022-12-01T05:52:45.330Z,0
2022-12-01T05:55:45.299Z,0
2022-12-01T05:58:45.339Z,0
2022-12-01T06:01:45.425Z,0.21
2022-12-01T06:04:45.412Z,0.35
2022-12-01T06:07:45.405Z,0.32
2022-12-01T06:10:45.446Z,0.16
2022-12-01T06:13:45.330Z,0.31
2022-12-01T06:16:45.415Z,0.15
2022-12-01T06:19:45.401Z,0.08
2022-12-01T06:22:45.384Z,0.29
2022-12-01T06:25:45.435Z,0.09
2022-12-01T06:28:45.392Z,0.14
2022-12-01T06:31:45.460Z,0.37
2022-12-01T06:34:45.420Z,0.21
2022-12-01T06:37:45.327Z,0.25
2022-12-01T06:40:45.352Z,0.14
2022-12-01T06:43:45.381Z,0.17
2022-12-01T06:46:45.433Z,0.3
2022-12-01T06:49:45.413Z,0.41
2022-12-01T06:52:45.612Z,0.6
2022-12-01T06:55:45.395Z,0.33
2022-12-01T06:58:45.453Z,0.65
2022-12-01T07:01:45.460Z,0.45
2022-12-01T07:04:45.469Z,0.55
2022-12-01T07:07:45.490Z,0.55
2022-12-01T07:10:45.399Z,0.73
2022-12-01T07:13:45.433Z,0.64
2022-12-01T07:16:45.498Z,0.21
2022-12-01T07:19:45.428Z,0.18
2022-12-01T07:22:45.485Z,0.22
2022-12-01T07:25:45.483Z,0.59
2022-12-01T07:28:45.395Z,0.35
2022-12-01T07:31:45.406Z,0.25
2022-12-01T07:34:45.406Z,0.11
2022-12-01T07:37:45.480Z,0.46
2022-12-01T07:40:45.406Z,0.28
2022-12-01T07:43:45.480Z,0.08
2022-12-01T07:46:45.485Z,0.02
2022-12-01T07:49:45.394Z,0.2
2022-12-01T07:52:45.507Z,0.16
2022-12-01T07:55:45.416Z,0.12
2022-12-01T07:58:45.420Z,0
2022-12-01T08:01:45.518Z,0.1
2022-12-01T08:04:45.444Z,0.19
2022-12-01T08:07:45.471Z,0.13
2022-12-01T08:10:45.488Z,0.32
2022-12-01T08:13:45.442Z,0.12
2022-12-01T08:16:45.434Z,0.28
2022-12-01T08:19:45.531Z,0.28
2022-12-01T08:22:45.492Z,0.44
2022-12-01T08:25:45.522Z,0.14
2022-12-01T08:28:45.546Z,0.42
2022-12-01T08:31:45.531Z,0.17
2022-12-01T08:34:48.260Z,0.06
2022-12-01T08:37:45.544Z,0.15
2022-12-01T08:40:45.443Z,0.25
2022-12-01T08:44:01.546Z,0.41
2022-12-01T08:46:45.544Z,0.11
2022-12-01T08:49:45.559Z,0.27
2022-12-01T08:52:45.542Z,0.17
2022-12-01T08:55:45.458Z,0.05
2022-12-01T08:58:45.532Z,0.19
2022-12-01T09:01:45.548Z,0.08
2022-12-01T09:04:45.462Z,0.19
2022-12-01T09:07:45.521Z,0.18
2022-12-01T09:10:45.539Z,0.41
2022-12-01T09:13:48.718Z,0.27
2022-12-01T09:16:45.564Z,0.44
2022-12-01T09:19:45.573Z,0.27
2022-12-01T09:22:45.511Z,0.36
2022-12-01T09:25:45.470Z,0.68
2022-12-01T09:28:45.495Z,0.42
2022-12-01T09:31:45.608Z,0.37
2022-12-01T09:34:45.581Z,0.51
2022-12-01T09:37:45.511Z,0.4
2022-12-01T09:40:45.545Z,0.57
2022-12-01T09:43:45.575Z,0.56
2022-12-01T09:46:45.569Z,0.6
2022-12-01T09:49:45.629Z,0.47
2022-12-01T09:52:45.502Z,0.59
2022-12-01T09:55:45.580Z,0.35
2022-12-01T09:58:45.578Z,0.18
2022-12-01T10:01:45.617Z,0.26
2022-12-01T10:04:45.588Z,0.14
2022-12-01T10:07:45.544Z,0.29
2022-12-01T10:10:45.615Z,0.35
2022-12-01T10:13:45.631Z,0.5
2022-12-01T10:16:45.755Z,0.32
2022-12-01T10:19:45.555Z,0.66
2022-12-01T10:22:45.640Z,0.62
2022-12-01T10:25:45.535Z,0.33
2022-12-01T10:28:45.649Z,0.46
2022-12-01T10:31:45.647Z,0.51
2022-12-01T10:34:45.561Z,0.82
2022-12-01T10:37:45.585Z,0.71
2022-12-01T10:40:45.626Z,0.73
2022-12-01T10:43:45.573Z,0.54
2022-12-01T10:46:45.570Z,0.17
2022-12-01T10:49:45.631Z,0.46
2022-12-01T10:52:45.592Z,0.35
2022-12-01T10:55:48.019Z,0.65
2022-12-01T10:58:45.575Z,0.34
2022-12-01T11:01:45.622Z,0.51
2022-12-01T11:04:45.784Z,0.42
2022-12-01T11:07:45.698Z,0.46
2022-12-01T11:10:45.563Z,0.83
2022-12-01T11:13:45.647Z,0.65
2022-12-01T11:16:45.717Z,0.59
2022-12-01T11:19:45.904Z,0.64
2022-12-01T11:22:45.603Z,0.62
2022-12-01T11:25:45.577Z,0.77
2022-12-01T11:28:45.675Z,0.82
2022-12-01T11:31:45.637Z,0.76
2022-12-01T11:34:45.712Z,0.51
2022-12-01T11:37:50.532Z,0.54
2022-12-01T11:40:45.619Z,0.68
2022-12-01T11:43:48.841Z,0.59
2022-12-01T11:49:47.230Z,0.59
2022-12-01T11:52:45.700Z,1.01
2022-12-01T11:55:45.667Z,0.88
2022-12-01T11:58:45.642Z,0.71
2022-12-01T12:01:45.663Z,0.63
2022-12-01T12:04:45.663Z,0.7
2022-12-01T12:07:45.699Z,0.7
2022-12-01T12:10:45.667Z,0.22
2022-12-01T12:13:45.710Z,0.32
2022-12-01T12:16:45.641Z,0.64
2022-12-01T12:20:06.622Z,0.35
2022-12-01T12:22:46.889Z,0.27
2022-12-01T12:25:45.632Z,0.59
2022-12-01T12:28:45.720Z,0.61
2022-12-01T12:31:45.673Z,0.27
2022-12-01T12:34:45.715Z,0.38
2022-12-01T12:37:45.640Z,1.03
2022-12-01T12:40:45.749Z,0.31
2022-12-01T12:43:45.664Z,0.46
2022-12-01T12:46:45.763Z,0.33
2022-12-01T12:49:45.744Z,0.76
2022-12-01T12:52:45.773Z,0.68
2022-12-01T12:55:45.694Z,0.38
2022-12-01T12:58:45.705Z,0.43
2022-12-01T13:01:45.781Z,0.16
2022-12-01T13:04:45.675Z,0.35
2022-12-01T13:07:45.730Z,0.23
2022-12-01T13:10:45.759Z,0.57
2022-12-01T13:13:45.723Z,0.18
2022-12-01T13:16:45.766Z,0.19
2022-12-01T13:19:45.874Z,0.27
2022-12-01T13:22:45.679Z,0.52
2022-12-01T13:25:45.782Z,0.66
2022-12-01T13:28:45.671Z,0.46
2022-12-01T13:31:45.843Z,0.35
2022-12-01T13:34:45.783Z,0.09
2022-12-01T13:37:45.791Z,0.13
2022-12-01T13:40:45.827Z,0.21
2022-12-01T13:43:45.750Z,0.09
2022-12-01T13:46:45.820Z,0.23
2022-12-01T13:49:45.716Z,0.19
2022-12-01T13:52:45.724Z,0.2
2022-12-01T13:55:45.769Z,0.38
2022-12-01T13:58:45.813Z,0.59
2022-12-01T14:01:45.792Z,0.82
2022-12-01T14:04:45.812Z,0.6
2022-12-01T14:07:45.832Z,0.27
2022-12-01T14:10:45.763Z,0.22
2022-12-01T14:13:45.747Z,0.21
2022-12-01T14:16:45.796Z,0.33
2022-12-01T14:19:45.761Z,0.31
2022-12-01T14:22:45.751Z,0.53
2022-12-01T14:25:45.784Z,0.61
2022-12-01T14:28:45.816Z,0.19
2022-12-01T14:31:45.796Z,0.17
2022-12-01T14:34:45.780Z,0.27
2022-12-01T14:37:45.839Z,0.74
2022-12-01T14:40:45.844Z,0.58
2022-12-01T14:43:45.844Z,0.35
2022-12-01T14:46:45.822Z,0.34
2022-12-01T14:49:45.840Z,0.54
2022-12-01T14:52:45.823Z,0.42
2022-12-01T14:55:45.860Z,0.33
2022-12-01T14:58:45.764Z,0.21
2022-12-01T15:01:45.912Z,0.09
2022-12-01T15:04:45.796Z,0.01
2022-12-01T15:07:45.835Z,0.31
2022-12-01T15:10:45.849Z,0.21
2022-12-01T15:13:45.778Z,0.16
2022-12-01T15:16:45.819Z,0.31
2022-12-01T15:19:45.869Z,0.37
2022-12-01T15:22:45.804Z,0.24
2022-12-01T15:25:45.816Z,0.2
2022-12-01T15:28:45.782Z,0.22
2022-12-01T15:31:45.924Z,0.33
2022-12-01T15:34:45.811Z,0.33
2022-12-01T15:37:45.811Z,0.4
2022-12-01T15:43:45.843Z,0.5
2022-12-01T15:46:45.814Z,0.66
2022-12-01T15:49:45.845Z,0.63
2022-12-01T15:52:45.807Z,0.21
2022-12-01T15:55:45.830Z,0.51
2022-12-01T15:58:45.895Z,0.66
2022-12-01T16:01:45.891Z,0.45
2022-12-01T16:04:45.914Z,0.39
2022-12-01T16:10:45.828Z,0.13
2022-12-01T16:13:45.897Z,0.25
2022-12-01T16:16:45.945Z,0.02
2022-12-01T16:19:45.870Z,0.21
2022-12-01T16:22:45.870Z,0.26
2022-12-01T16:25:45.977Z,0.5
2022-12-01T16:28:45.844Z,0.25
2022-12-01T16:32:05.409Z,0.38
2022-12-01T16:34:46.830Z,0.39
2022-12-01T16:37:45.874Z,0.42
2022-12-01T16:40:45.892Z,0.3
2022-12-01T16:43:59.370Z,0.25
2022-12-01T16:46:45.853Z,0.04
2022-12-01T16:49:45.899Z,0.1
2022-12-01T16:52:46.050Z,0.28
2022-12-01T16:55:45.978Z,0.17
2022-12-01T16:58:45.892Z,0.14
2022-12-01T17:01:46.232Z,0.04
2022-12-01T17:04:45.947Z,0.06
2022-12-01T17:07:45.927Z,0.26
2022-12-01T17:10:45.976Z,0.09
2022-12-01T17:13:45.867Z,0.16
2022-12-01T17:16:46.008Z,0.06
2022-12-01T17:19:45.970Z,0.11
2022-12-01T17:22:45.959Z,0.01
2022-12-01T17:25:45.970Z,0.28
2022-12-01T17:28:45.968Z,0.05
2022-12-01T17:31:45.907Z,0
2022-12-01T17:34:45.992Z,0.1
2022-12-01T17:37:45.989Z,0.21
2022-12-01T17:40:45.983Z,0.06
2022-12-01T17:43:45.901Z,0.04
2022-12-01T17:46:46.032Z,0.06
2022-12-01T17:49:45.950Z,0.07
2022-12-01T17:52:45.992Z,0
2022-12-01T17:55:45.933Z,0
2022-12-01T17:58:46.214Z,0.02
2022-12-01T18:01:46.054Z,0
2022-12-01T18:04:46.095Z,0.06
2022-12-01T18:07:46.070Z,0.08
2022-12-01T18:10:45.932Z,0.03
2022-12-01T18:13:45.922Z,0.09
2022-12-01T18:16:45.951Z,0.31
2022-12-01T18:19:45.983Z,0.18
2022-12-01T18:22:46.038Z,0.08
2022-12-01T18:25:45.959Z,0.03
2022-12-01T18:28:45.947Z,0.05
2022-12-01T18:31:46.059Z,0
2022-12-01T18:34:45.994Z,0
2022-12-01T18:37:45.964Z,0
2022-12-01T18:40:45.974Z,0
2022-12-01T18:43:45.989Z,0
2022-12-01T18:46:46.008Z,0.12
2022-12-01T18:49:46.019Z,0.09
2022-12-01T18:52:46.052Z,0.02
2022-12-01T18:55:46.044Z,0.12
2022-12-01T18:58:46.001Z,0.1
2022-12-01T19:01:46.157Z,0.08
2022-12-01T19:04:45.988Z,0
2022-12-01T19:07:46.135Z,0
2022-12-01T19:10:46.065Z,0
2022-12-01T19:13:46.049Z,0
2022-12-01T19:16:46.160Z,0
2022-12-01T19:19:46.053Z,0
2022-12-01T19:22:46.069Z,0
2022-12-01T19:25:46.011Z,0
2022-12-01T19:28:46.030Z,0
2022-12-01T19:31:46.078Z,0
2022-12-01T19:34:46.116Z,0
2022-12-01T19:37:46.109Z,0
2022-12-01T19:40:46.103Z,0
2022-12-01T19:43:46.096Z,0
2022-12-01T19:46:46.051Z,0
2022-12-01T19:49:46.103Z,0
2022-12-01T19:52:46.131Z,0
2022-12-01T19:55:46.082Z,0
2022-12-01T19:58:46.040Z,0
2022-12-01T20:01:46.122Z,0
2022-12-01T20:04:46.022Z,0
2022-12-01T20:07:46.176Z,0.12
2022-12-01T20:10:46.091Z,0.13
2022-12-01T20:13:46.050Z,0
2022-12-01T20:16:46.113Z,0.13
2022-12-01T20:19:46.118Z,0.16
2022-12-01T20:22:46.162Z,0.05
2022-12-01T20:25:46.224Z,0.06
2022-12-01T20:28:46.085Z,0.3
2022-12-01T20:31:46.183Z,0.25
2022-12-01T20:34:46.037Z,0.27
2022-12-01T20:37:46.130Z,0.45
2022-12-01T20:40:46.156Z,0.19
2022-12-01T20:43:46.152Z,0.34
2022-12-01T20:46:46.143Z,0.22
2022-12-01T20:49:46.187Z,0.15
2022-12-01T20:52:46.086Z,0.14
2022-12-01T20:55:46.149Z,0.01
2022-12-01T20:58:46.126Z,0.02
2022-12-01T21:01:46.100Z,0.01
2022-12-01T21:04:46.077Z,0.16
2022-12-01T21:07:46.218Z,0.05
2022-12-01T21:10:46.090Z,0.01
2022-12-01T21:13:46.108Z,0.05
2022-12-01T21:16:46.199Z,0
2022-12-01T21:19:46.119Z,0
2022-12-01T21:22:48.004Z,0
2022-12-01T21:25:46.108Z,0
2022-12-01T21:28:46.124Z,0
2022-12-01T21:31:46.114Z,0.07
2022-12-01T21:34:48.264Z,0
2022-12-01T21:37:46.199Z,0.04
2022-12-01T21:40:46.193Z,0.12
2022-12-01T21:43:46.186Z,0.02
2022-12-01T21:46:46.234Z,0.01
2022-12-01T21:49:46.165Z,0.03
2022-12-01T21:52:46.233Z,0.15
2022-12-01T21:55:46.111Z,0.04
2022-12-01T21:58:46.186Z,0.12
2022-12-01T22:01:46.167Z,0.34
2022-12-01T22:04:46.247Z,0.12
2022-12-01T22:07:46.260Z,0.01
2022-12-01T22:10:46.160Z,0
2022-12-01T22:13:46.154Z,0.03
2022-12-01T22:16:46.213Z,0.05
2022-12-01T22:19:46.198Z,0
2022-12-01T22:22:46.125Z,0.08
2022-12-01T22:25:46.273Z,0.03
2022-12-01T22:28:46.233Z,0.02
2022-12-01T22:31:46.204Z,0
2022-12-01T22:34:46.241Z,0.04
2022-12-01T22:37:46.242Z,0
2022-12-01T22:40:46.302Z,0.02
2022-12-01T22:43:46.165Z,0.09
2022-12-01T22:46:46.257Z,0.13
2022-12-01T22:49:46.237Z,0.03
2022-12-01T22:52:46.261Z,0.26
2022-12-01T22:55:46.277Z,0.25
2022-12-01T22:58:46.152Z,0.31
2022-12-01T23:01:46.262Z,0.19
2022-12-01T23:04:46.236Z,0.34
2022-12-01T23:07:46.288Z,0.28
2022-12-01T23:10:46.281Z,0.15
2022-12-01T23:13:46.275Z,0.28
2022-12-01T23:16:46.178Z,0.13
2022-12-01T23:19:46.224Z,0.22
2022-12-01T23:22:46.269Z,0.33
2022-12-01T23:25:46.220Z,0.22
2022-12-01T23:28:46.264Z,0.13
2022-12-01T23:31:46.327Z,0.35
2022-12-01T23:34:46.207Z,0.24
2022-12-01T23:37:46.281Z,0.33
2022-12-01T23:40:46.236Z,0.1
2022-12-01T23:43:46.230Z,0.13
2022-12-01T23:46:46.302Z,0.25
2022-12-01T23:49:46.206Z,0.24
2022-12-01T23:52:46.301Z,0.13
2022-12-01T23:55:46.214Z,0.33
2022-12-01T23:58:46.310Z,0.22
